Terminal Aerodrome Forecast
Issued by NWS Sterling, VA

Current Version | Previous Version | Text Only | Print | Product List | Glossary Off
Versions: 1 2 3 4 5 6 7 8 9 10 11 12 13 14 15 16 17 18 19 20 21 22 23 24 25

000
FTUS41 KLWX 291100
TAFDCA
TAF
KDCA 291127Z 2912/3012 18004KT P6SM OVC230
     FM291500 32009KT P6SM BKN050
     FM291600 32009KT P6SM -SHRA BKN050
     FM292000 30004KT P6SM -SHRA BKN050
     FM292100 VRB03KT P6SM BKN070
     FM300300 31005KT P6SM SCT250=

USA.gov is the U.S. government's official web portal to all federal, state and local government web resources and services.